createdAt,value
2022-07-28T00:00:02.347Z,1001.08
2022-07-28T00:01:02.327Z,1001.08
2022-07-28T00:02:02.356Z,1001.09
2022-07-28T00:03:02.379Z,1001.08
2022-07-28T00:04:02.265Z,1001.08
2022-07-28T00:05:02.257Z,1001.08
2022-07-28T00:06:02.231Z,1001.07
2022-07-28T00:07:02.226Z,1001.08
2022-07-28T00:08:02.187Z,1001.07
2022-07-28T00:09:02.176Z,1001.07
2022-07-28T00:10:02.154Z,1001.03
2022-07-28T00:11:02.138Z,1001.02
2022-07-28T00:12:02.168Z,1001.01
2022-07-28T00:13:02.123Z,1000.99
2022-07-28T00:14:02.098Z,1000.97
2022-07-28T00:15:02.060Z,1000.97
2022-07-28T00:16:02.117Z,1000.97
2022-07-28T00:17:02.040Z,1000.96
2022-07-28T00:18:02.024Z,1000.96
2022-07-28T00:19:02.419Z,1000.98
2022-07-28T00:20:01.983Z,1000.95
2022-07-28T00:21:01.961Z,1000.95
2022-07-28T00:22:01.927Z,1000.96
2022-07-28T00:23:01.950Z,1000.96
2022-07-28T00:24:01.894Z,1000.98
2022-07-28T00:25:01.879Z,1000.99
2022-07-28T00:26:01.846Z,1001.00
2022-07-28T00:27:01.846Z,1001.01
2022-07-28T00:28:01.867Z,1001.00
2022-07-28T00:29:01.878Z,1000.99
2022-07-28T00:30:01.794Z,1000.98
2022-07-28T00:31:04.955Z,1001.01
2022-07-28T00:32:02.823Z,1001.00
2022-07-28T00:33:01.735Z,1001.00
2022-07-28T00:34:01.742Z,1001.02
2022-07-28T00:35:02.438Z,1001.02
2022-07-28T00:36:01.712Z,1001.00
2022-07-28T00:37:01.665Z,1001.01
2022-07-28T00:38:02.700Z,1001.00
2022-07-28T00:39:01.670Z,1000.98
2022-07-28T00:40:01.621Z,1000.96
2022-07-28T00:41:01.628Z,1000.96
2022-07-28T00:42:01.577Z,1000.95
2022-07-28T00:43:01.576Z,1000.94
2022-07-28T00:44:01.548Z,1000.94
2022-07-28T00:45:01.540Z,1000.94
2022-07-28T00:46:01.527Z,1000.92
2022-07-28T00:47:01.618Z,1000.90
2022-07-28T00:48:01.456Z,1000.86
2022-07-28T00:49:01.572Z,1000.86
2022-07-28T00:50:01.427Z,1000.84
2022-07-28T00:51:01.449Z,1000.84
2022-07-28T00:52:01.392Z,1000.82
2022-07-28T00:53:01.386Z,1000.82
2022-07-28T00:54:01.363Z,1000.80
2022-07-28T00:55:01.353Z,1000.78
2022-07-28T00:56:03.536Z,1000.76
2022-07-28T00:57:02.304Z,1000.75
2022-07-28T00:58:01.297Z,1000.75
2022-07-28T00:59:01.263Z,1000.75
2022-07-28T01:00:01.243Z,1000.74
2022-07-28T01:01:01.264Z,1000.75
2022-07-28T01:02:01.502Z,1000.74
2022-07-28T01:03:01.226Z,1000.75
2022-07-28T01:04:01.171Z,1000.75
2022-07-28T01:05:01.145Z,1000.74
2022-07-28T01:06:01.154Z,1000.74
2022-07-28T01:07:01.112Z,1000.74
2022-07-28T01:08:01.087Z,1000.73
2022-07-28T01:09:01.077Z,1000.74
2022-07-28T01:10:01.049Z,1000.74
2022-07-28T01:11:01.056Z,1000.76
2022-07-28T01:12:01.135Z,1000.77
2022-07-28T01:13:01.017Z,1000.78
2022-07-28T01:14:00.987Z,1000.79
2022-07-28T01:15:00.975Z,1000.82
2022-07-28T01:16:01.012Z,1000.84
2022-07-28T01:17:00.933Z,1000.84
2022-07-28T01:18:00.904Z,1000.82
2022-07-28T01:19:00.905Z,1000.79
2022-07-28T01:20:00.881Z,1000.77
2022-07-28T01:21:00.872Z,1000.75
2022-07-28T01:22:00.869Z,1000.75
2022-07-28T01:23:00.834Z,1000.75
2022-07-28T01:24:00.798Z,1000.75
2022-07-28T01:25:00.773Z,1000.76
2022-07-28T01:26:00.778Z,1000.77
2022-07-28T01:27:00.776Z,1000.76
2022-07-28T01:28:00.715Z,1000.76
2022-07-28T01:29:00.704Z,1000.74
2022-07-28T01:30:00.690Z,1000.72
2022-07-28T01:31:00.743Z,1000.71
2022-07-28T01:32:00.698Z,1000.69
2022-07-28T01:33:00.665Z,1000.66
2022-07-28T01:34:00.612Z,1000.66
2022-07-28T01:35:00.596Z,1000.66
2022-07-28T01:36:00.566Z,1000.66
2022-07-28T01:37:00.575Z,1000.65
2022-07-28T01:38:00.575Z,1000.65
2022-07-28T01:39:00.535Z,1000.64
2022-07-28T01:40:00.488Z,1000.61
2022-07-28T01:41:00.578Z,1000.60
2022-07-28T01:42:00.475Z,1000.59
2022-07-28T01:43:00.480Z,1000.58
2022-07-28T01:44:00.420Z,1000.59
2022-07-28T01:45:00.394Z,1000.60
2022-07-28T01:46:00.390Z,1000.59
2022-07-28T01:47:00.373Z,1000.60
2022-07-28T01:48:00.402Z,1000.58
2022-07-28T01:49:00.404Z,1000.58
2022-07-28T01:50:00.324Z,1000.57
2022-07-28T01:51:00.320Z,1000.55
2022-07-28T01:52:00.274Z,1000.54
2022-07-28T01:53:00.313Z,1000.54
2022-07-28T01:54:00.231Z,1000.53
2022-07-28T01:55:00.236Z,1000.52
2022-07-28T01:56:00.241Z,1000.53
2022-07-28T01:57:00.187Z,1000.56
2022-07-28T01:58:00.193Z,1000.55
2022-07-28T01:59:00.188Z,1000.55
2022-07-28T02:00:00.174Z,1000.54
2022-07-28T02:01:00.129Z,1000.54
2022-07-28T02:02:00.244Z,1000.53
2022-07-28T02:03:00.105Z,1000.53
2022-07-28T02:04:00.100Z,1000.53
2022-07-28T02:05:00.223Z,1000.52
2022-07-28T02:06:00.063Z,1000.52
2022-07-28T02:07:00.009Z,1000.51
2022-07-28T02:07:59.979Z,1000.51
2022-07-28T02:08:59.999Z,1000.51
2022-07-28T02:09:59.972Z,1000.50
2022-07-28T02:10:59.944Z,1000.49
2022-07-28T02:11:59.939Z,1000.49
2022-07-28T02:12:59.879Z,1000.47
2022-07-28T02:13:59.916Z,1000.49
2022-07-28T02:14:59.869Z,1000.47
2022-07-28T02:15:59.909Z,1000.47
2022-07-28T02:16:59.809Z,1000.47
2022-07-28T02:17:59.811Z,1000.47
2022-07-28T02:18:59.784Z,1000.45
2022-07-28T02:19:59.798Z,1000.44
2022-07-28T02:20:59.748Z,1000.43
2022-07-28T02:21:59.716Z,1000.43
2022-07-28T02:22:59.708Z,1000.43
2022-07-28T02:23:59.721Z,1000.42
2022-07-28T02:24:59.707Z,1000.43
2022-07-28T02:25:59.652Z,1000.42
2022-07-28T02:26:59.618Z,1000.40
2022-07-28T02:27:59.618Z,1000.39
2022-07-28T02:28:59.593Z,1000.38
2022-07-28T02:29:59.660Z,1000.37
2022-07-28T02:30:59.637Z,1000.36
2022-07-28T02:31:59.530Z,1000.35
2022-07-28T02:32:59.530Z,1000.34
2022-07-28T02:34:02.278Z,1000.34
2022-07-28T02:34:59.569Z,1000.32
2022-07-28T02:35:59.516Z,1000.31
2022-07-28T02:36:59.434Z,1000.30
2022-07-28T02:37:59.442Z,1000.30
2022-07-28T02:38:59.429Z,1000.26
2022-07-28T02:40:00.571Z,1000.28
2022-07-28T02:40:59.377Z,1000.29
2022-07-28T02:41:59.413Z,1000.27
2022-07-28T02:42:59.362Z,1000.28
2022-07-28T02:43:59.330Z,1000.27
2022-07-28T02:44:59.319Z,1000.26
2022-07-28T02:45:59.348Z,1000.23
2022-07-28T02:46:59.311Z,1000.21
2022-07-28T02:47:59.250Z,1000.22
2022-07-28T02:48:59.359Z,1000.20
2022-07-28T02:49:59.217Z,1000.20
2022-07-28T02:50:59.247Z,1000.19
2022-07-28T02:51:59.192Z,1000.18
2022-07-28T02:52:59.246Z,1000.20
2022-07-28T02:53:59.115Z,1000.19
2022-07-28T02:54:59.259Z,1000.20
2022-07-28T02:55:59.079Z,1000.20
2022-07-28T02:56:59.141Z,1000.20
2022-07-28T02:57:59.077Z,1000.18
2022-07-28T02:58:59.119Z,1000.17
2022-07-28T02:59:59.040Z,1000.17
2022-07-28T03:00:59.119Z,1000.17
2022-07-28T03:01:59.043Z,1000.17
2022-07-28T03:02:59.099Z,1000.17
2022-07-28T03:03:58.958Z,1000.18
2022-07-28T03:04:59.416Z,1000.18
2022-07-28T03:05:58.915Z,1000.14
2022-07-28T03:06:58.954Z,1000.16
2022-07-28T03:07:58.913Z,1000.17
2022-07-28T03:08:58.979Z,1000.18
2022-07-28T03:09:58.842Z,1000.18
2022-07-28T03:10:59.618Z,1000.19
2022-07-28T03:11:58.805Z,1000.20
2022-07-28T03:12:58.857Z,1000.19
2022-07-28T03:13:58.824Z,1000.20
2022-07-28T03:14:58.817Z,1000.21
2022-07-28T03:15:58.724Z,1000.20
2022-07-28T03:16:59.659Z,1000.19
2022-07-28T03:17:58.698Z,1000.21
2022-07-28T03:18:58.798Z,1000.19
2022-07-28T03:19:58.654Z,1000.19
2022-07-28T03:20:58.696Z,1000.15
2022-07-28T03:21:58.604Z,1000.18
2022-07-28T03:22:58.679Z,1000.18
2022-07-28T03:23:58.643Z,1000.18
2022-07-28T03:24:59.611Z,1000.19
2022-07-28T03:25:58.564Z,1000.19
2022-07-28T03:26:58.622Z,1000.20
2022-07-28T03:27:58.516Z,1000.20
2022-07-28T03:28:58.663Z,1000.20
2022-07-28T03:30:03.472Z,1000.19
2022-07-28T03:30:59.611Z,1000.17
2022-07-28T03:31:58.441Z,1000.16
2022-07-28T03:32:59.108Z,1000.14
2022-07-28T03:33:58.458Z,1000.13
2022-07-28T03:34:58.481Z,1000.13
2022-07-28T03:35:58.352Z,1000.13
2022-07-28T03:36:58.431Z,1000.13
2022-07-28T03:37:58.346Z,1000.10
2022-07-28T03:38:58.383Z,1000.13
2022-07-28T03:39:58.335Z,1000.12
2022-07-28T03:40:58.343Z,1000.12
2022-07-28T03:41:58.252Z,1000.13
2022-07-28T03:42:58.328Z,1000.13
2022-07-28T03:43:58.219Z,1000.13
2022-07-28T03:44:58.325Z,1000.13
2022-07-28T03:45:58.230Z,1000.12
2022-07-28T03:46:58.297Z,1000.12
2022-07-28T03:47:58.149Z,1000.12
2022-07-28T03:48:59.214Z,1000.13
2022-07-28T03:49:58.136Z,1000.11
2022-07-28T03:50:58.209Z,1000.10
2022-07-28T03:51:58.097Z,1000.13
2022-07-28T03:52:58.122Z,1000.14
2022-07-28T03:53:58.033Z,1000.14
2022-07-28T03:54:58.111Z,1000.14
2022-07-28T03:55:58.041Z,1000.14
2022-07-28T03:56:58.069Z,1000.14
2022-07-28T03:57:57.941Z,1000.13
2022-07-28T03:58:58.013Z,1000.14
2022-07-28T03:59:57.960Z,1000.12
2022-07-28T04:00:58.062Z,1000.14
2022-07-28T04:01:57.974Z,1000.13
2022-07-28T04:02:57.980Z,1000.13
2022-07-28T04:03:57.855Z,1000.13
2022-07-28T04:04:57.908Z,1000.12
2022-07-28T04:05:57.845Z,1000.11
2022-07-28T04:06:57.879Z,1000.12
2022-07-28T04:07:57.757Z,1000.15
2022-07-28T04:08:57.852Z,1000.14
2022-07-28T04:09:57.737Z,1000.15
2022-07-28T04:10:57.801Z,1000.17
2022-07-28T04:11:57.739Z,1000.18
2022-07-28T04:12:57.747Z,1000.20
2022-07-28T04:13:57.656Z,1000.22
2022-07-28T04:14:57.737Z,1000.22
2022-07-28T04:15:57.640Z,1000.23
2022-07-28T04:16:57.750Z,1000.25
2022-07-28T04:17:57.609Z,1000.24
2022-07-28T04:18:57.631Z,1000.23
2022-07-28T04:19:57.551Z,1000.23
2022-07-28T04:20:57.666Z,1000.22
2022-07-28T04:21:57.535Z,1000.22
2022-07-28T04:22:57.555Z,1000.20
2022-07-28T04:24:01.834Z,1000.18
2022-07-28T04:24:57.534Z,1000.17
2022-07-28T04:25:57.426Z,1000.15
2022-07-28T04:26:58.156Z,1000.18
2022-07-28T04:27:57.433Z,1000.19
2022-07-28T04:28:57.515Z,1000.19
2022-07-28T04:29:57.356Z,1000.19
2022-07-28T04:30:57.472Z,1000.19
2022-07-28T04:31:57.324Z,1000.20
2022-07-28T04:32:57.394Z,1000.19
2022-07-28T04:33:57.729Z,1000.20
2022-07-28T04:34:57.349Z,1000.19
2022-07-28T04:35:57.253Z,1000.18
2022-07-28T04:36:57.333Z,1000.18
2022-07-28T04:37:57.220Z,1000.19
2022-07-28T04:38:57.341Z,1000.18
2022-07-28T04:39:57.236Z,1000.18
2022-07-28T04:40:57.237Z,1000.19
2022-07-28T04:41:57.146Z,1000.19
2022-07-28T04:42:57.212Z,1000.18
2022-07-28T04:43:57.125Z,1000.20
2022-07-28T04:44:57.161Z,1000.19
2022-07-28T04:45:57.145Z,1000.20
2022-07-28T04:46:57.124Z,1000.19
2022-07-28T04:47:57.036Z,1000.20
2022-07-28T04:48:57.163Z,1000.22
2022-07-28T04:49:57.002Z,1000.23
2022-07-28T04:50:57.661Z,1000.22
2022-07-28T04:51:57.136Z,1000.25
2022-07-28T04:52:57.022Z,1000.25
2022-07-28T04:53:56.959Z,1000.27
2022-07-28T04:54:57.017Z,1000.25
2022-07-28T04:55:56.895Z,1000.27
2022-07-28T04:56:56.951Z,1000.27
2022-07-28T04:57:56.839Z,1000.28
2022-07-28T04:58:56.926Z,1000.27
2022-07-28T04:59:56.836Z,1000.27
2022-07-28T05:00:57.755Z,1000.28
2022-07-28T05:01:56.781Z,1000.24
2022-07-28T05:02:57.661Z,1000.24
2022-07-28T05:03:56.740Z,1000.24
2022-07-28T05:04:57.747Z,1000.25
2022-07-28T05:05:56.730Z,1000.22
2022-07-28T05:06:56.771Z,1000.21
2022-07-28T05:07:56.677Z,1000.18
2022-07-28T05:08:56.738Z,1000.19
2022-07-28T05:09:56.678Z,1000.18
2022-07-28T05:10:57.643Z,1000.18
2022-07-28T05:11:56.590Z,1000.18
2022-07-28T05:12:56.705Z,1000.18
2022-07-28T05:13:56.586Z,1000.17
2022-07-28T05:14:57.168Z,1000.19
2022-07-28T05:15:56.576Z,1000.22
2022-07-28T05:16:56.651Z,1000.19
2022-07-28T05:17:56.501Z,1000.19
2022-07-28T05:18:56.553Z,1000.14
2022-07-28T05:19:56.529Z,1000.15
2022-07-28T05:20:56.540Z,1000.14
2022-07-28T05:21:56.408Z,1000.13
2022-07-28T05:22:56.466Z,1000.15
2022-07-28T05:23:56.392Z,1000.14
2022-07-28T05:24:57.169Z,1000.15
2022-07-28T05:25:56.380Z,1000.18
2022-07-28T05:26:56.404Z,1000.19
2022-07-28T05:27:56.320Z,1000.18
2022-07-28T05:28:56.377Z,1000.20
2022-07-28T05:29:56.277Z,1000.18
2022-07-28T05:30:56.389Z,1000.19
2022-07-28T05:31:56.325Z,1000.21
2022-07-28T05:32:56.298Z,1000.20
2022-07-28T05:33:56.197Z,1000.18
2022-07-28T05:34:56.261Z,1000.21
2022-07-28T05:35:56.172Z,1000.17
2022-07-28T05:36:56.232Z,1000.20
2022-07-28T05:37:56.152Z,1000.21
2022-07-28T05:38:56.189Z,1000.19
2022-07-28T05:39:56.259Z,1000.19
2022-07-28T05:40:56.150Z,1000.20
2022-07-28T05:41:56.031Z,1000.20
2022-07-28T05:42:56.107Z,1000.21
2022-07-28T05:43:56.015Z,1000.21
2022-07-28T05:44:56.095Z,1000.19
2022-07-28T05:45:56.133Z,1000.19
2022-07-28T05:46:56.337Z,1000.20
2022-07-28T05:47:55.941Z,1000.19
2022-07-28T05:48:56.116Z,1000.18
2022-07-28T05:49:55.910Z,1000.17
2022-07-28T05:50:55.997Z,1000.22
2022-07-28T05:51:55.886Z,1000.23
2022-07-28T05:52:55.927Z,1000.23
2022-07-28T05:53:55.839Z,1000.23
2022-07-28T05:54:55.958Z,1000.22
2022-07-28T05:56:00.315Z,1000.21
2022-07-28T05:56:56.891Z,1000.22
2022-07-28T05:57:55.744Z,1000.23
2022-07-28T05:58:55.824Z,1000.20
2022-07-28T05:59:55.713Z,1000.22
2022-07-28T06:00:55.894Z,1000.22
2022-07-28T06:01:55.746Z,1000.20
2022-07-28T06:02:55.790Z,1000.22
2022-07-28T06:04:10.125Z,1000.21
2022-07-28T06:04:56.658Z,1000.21
2022-07-28T06:05:59.423Z,1000.18
2022-07-28T06:06:56.817Z,1000.18
2022-07-28T06:07:55.582Z,1000.19
2022-07-28T06:08:56.712Z,1000.20
2022-07-28T06:09:55.590Z,1000.21
2022-07-28T06:10:56.062Z,1000.18
2022-07-28T06:11:55.522Z,1000.19
2022-07-28T06:12:55.567Z,1000.20
2022-07-28T06:13:55.473Z,1000.16
2022-07-28T06:14:55.584Z,1000.18
2022-07-28T06:15:55.471Z,1000.17
2022-07-28T06:16:55.574Z,1000.15
2022-07-28T06:17:55.458Z,1000.15
2022-07-28T06:18:55.449Z,1000.17
2022-07-28T06:19:55.361Z,1000.17
2022-07-28T06:20:55.448Z,1000.14
2022-07-28T06:21:55.304Z,1000.13
2022-07-28T06:22:55.527Z,1000.15
2022-07-28T06:23:55.296Z,1000.13
2022-07-28T06:24:55.339Z,1000.13
2022-07-28T06:25:55.259Z,1000.11
2022-07-28T06:26:56.179Z,1000.12
2022-07-28T06:27:55.194Z,1000.10
2022-07-28T06:28:56.131Z,1000.10
2022-07-28T06:29:55.153Z,1000.12
2022-07-28T06:30:55.247Z,1000.12
2022-07-28T06:31:55.209Z,1000.12
2022-07-28T06:32:55.309Z,1000.11
2022-07-28T06:33:55.083Z,1000.13
2022-07-28T06:34:55.183Z,1000.11
2022-07-28T06:35:55.054Z,1000.12
2022-07-28T06:36:55.142Z,1000.13
2022-07-28T06:37:55.166Z,1000.11
2022-07-28T06:38:55.132Z,1000.09
2022-07-28T06:39:54.962Z,1000.07
2022-07-28T06:40:55.087Z,1000.09
2022-07-28T06:41:54.946Z,1000.07
2022-07-28T06:42:55.028Z,1000.07
2022-07-28T06:43:54.905Z,1000.07
2022-07-28T06:44:59.459Z,1000.08
2022-07-28T06:45:54.898Z,1000.03
2022-07-28T06:46:55.063Z,1000.03
2022-07-28T06:47:54.818Z,999.99
2022-07-28T06:48:54.981Z,1000.00
2022-07-28T06:49:54.783Z,999.97
2022-07-28T06:50:54.887Z,999.95
2022-07-28T06:51:54.799Z,999.91
2022-07-28T06:52:54.833Z,999.92
2022-07-28T06:53:54.715Z,999.91
2022-07-28T06:54:58.215Z,999.91
2022-07-28T06:55:54.692Z,999.91
2022-07-28T06:56:54.862Z,999.91
2022-07-28T06:57:54.638Z,999.91
2022-07-28T06:58:54.729Z,999.90
2022-07-28T06:59:54.609Z,999.90
2022-07-28T07:00:54.815Z,999.89
2022-07-28T07:01:54.543Z,999.91
2022-07-28T07:02:54.674Z,999.93
2022-07-28T07:03:54.560Z,999.95
2022-07-28T07:04:54.621Z,999.99
2022-07-28T07:05:54.493Z,1000.02
2022-07-28T07:06:54.595Z,1000.02
2022-07-28T07:07:54.507Z,1000.06
2022-07-28T07:08:54.552Z,1000.04
2022-07-28T07:09:54.413Z,1000.02
2022-07-28T07:10:54.558Z,999.99
2022-07-28T07:11:54.399Z,1000.03
2022-07-28T07:12:54.534Z,1000.04
2022-07-28T07:13:54.337Z,1000.02
2022-07-28T07:14:54.495Z,1000.04
2022-07-28T07:15:54.460Z,1000.08
2022-07-28T07:16:54.402Z,1000.10
2022-07-28T07:17:54.285Z,1000.10
2022-07-28T07:18:54.411Z,1000.09
2022-07-28T07:19:54.235Z,1000.07
2022-07-28T07:20:55.221Z,1000.05
2022-07-28T07:21:54.233Z,1000.05
2022-07-28T07:22:54.278Z,1000.05
2022-07-28T07:23:54.222Z,1000.04
2022-07-28T07:24:57.190Z,1000.03
2022-07-28T07:25:54.135Z,1000.03
2022-07-28T07:26:55.228Z,1000.03
2022-07-28T07:27:54.095Z,1000.01
2022-07-28T07:28:54.232Z,999.98
2022-07-28T07:29:54.051Z,999.95
2022-07-28T07:30:54.164Z,999.92
2022-07-28T07:31:54.060Z,999.92
2022-07-28T07:32:54.091Z,999.92
2022-07-28T07:33:54.005Z,999.93
2022-07-28T07:34:54.713Z,999.92
2022-07-28T07:35:53.960Z,999.89
2022-07-28T07:36:54.057Z,999.90
2022-07-28T07:37:53.916Z,999.86
2022-07-28T07:38:54.013Z,999.88
2022-07-28T07:39:53.900Z,999.86
2022-07-28T07:40:54.732Z,999.83
2022-07-28T07:41:53.845Z,999.88
2022-07-28T07:42:53.926Z,999.87
2022-07-28T07:43:53.802Z,999.91
2022-07-28T07:44:53.927Z,999.89
2022-07-28T07:45:53.768Z,999.89
2022-07-28T07:46:54.014Z,999.89
2022-07-28T07:47:53.721Z,999.90
2022-07-28T07:48:53.868Z,999.88
2022-07-28T07:49:53.748Z,999.89
2022-07-28T07:50:54.488Z,999.90
2022-07-28T07:51:53.657Z,999.89
2022-07-28T07:52:53.746Z,999.90
2022-07-28T07:53:53.652Z,999.88
2022-07-28T07:54:54.670Z,999.89
2022-07-28T07:55:53.669Z,999.84
2022-07-28T07:56:53.674Z,999.89
2022-07-28T07:57:53.714Z,999.87
2022-07-28T07:58:56.868Z,999.83
2022-07-28T07:59:53.619Z,999.83
2022-07-28T08:00:53.656Z,999.83
2022-07-28T08:01:53.609Z,999.81
2022-07-28T08:02:53.592Z,999.80
2022-07-28T08:03:54.237Z,999.80
2022-07-28T08:04:53.580Z,999.81
2022-07-28T08:05:53.543Z,999.84
2022-07-28T08:06:53.546Z,999.87
2022-07-28T08:07:54.233Z,999.80
2022-07-28T08:08:53.459Z,999.82
2022-07-28T08:09:53.415Z,999.85
2022-07-28T08:10:53.449Z,999.85
2022-07-28T08:11:54.229Z,999.87
2022-07-28T08:12:53.356Z,999.86
2022-07-28T08:13:53.345Z,999.85
2022-07-28T08:14:53.348Z,999.87
2022-07-28T08:15:53.478Z,999.87
2022-07-28T08:16:53.314Z,999.88
2022-07-28T08:17:54.220Z,999.87
2022-07-28T08:18:53.275Z,999.84
2022-07-28T08:19:53.245Z,999.82
2022-07-28T08:20:53.266Z,999.79
2022-07-28T08:21:53.198Z,999.79
2022-07-28T08:22:53.215Z,999.76
2022-07-28T08:23:53.728Z,999.72
2022-07-28T08:24:53.219Z,999.70
2022-07-28T08:25:53.114Z,999.68
2022-07-28T08:26:53.138Z,999.67
2022-07-28T08:27:53.122Z,999.65
2022-07-28T08:28:53.085Z,999.66
2022-07-28T08:29:53.048Z,999.67
2022-07-28T08:30:53.106Z,999.65
2022-07-28T08:31:53.204Z,999.66
2022-07-28T08:32:56.558Z,999.66
2022-07-28T08:33:53.747Z,999.60
2022-07-28T08:35:00.145Z,999.63
2022-07-28T08:35:54.022Z,999.63
2022-07-28T08:36:52.980Z,999.62
2022-07-28T08:37:52.929Z,999.57
2022-07-28T08:38:52.889Z,999.60
2022-07-28T08:39:52.897Z,999.60
2022-07-28T08:40:52.882Z,999.56
2022-07-28T08:41:53.501Z,999.51
2022-07-28T08:42:53.669Z,999.56
2022-07-28T08:43:52.831Z,999.57
2022-07-28T08:44:52.807Z,999.57
2022-07-28T08:45:58.129Z,999.57
2022-07-28T08:46:54.226Z,999.55
2022-07-28T08:48:07.633Z,999.56
2022-07-28T08:48:54.711Z,999.54
2022-07-28T08:49:52.745Z,999.56
2022-07-28T08:50:53.234Z,999.55
2022-07-28T08:51:52.647Z,999.53
2022-07-28T08:52:52.713Z,999.53
2022-07-28T08:53:52.636Z,999.51
2022-07-28T08:54:52.612Z,999.54
2022-07-28T08:55:52.597Z,999.52
2022-07-28T08:56:52.588Z,999.54
2022-07-28T08:57:52.604Z,999.56
2022-07-28T08:58:52.598Z,999.53
2022-07-28T08:59:53.251Z,999.54
2022-07-28T09:00:52.500Z,999.53
2022-07-28T09:01:57.302Z,999.56
2022-07-28T09:02:53.506Z,999.55
2022-07-28T09:03:52.473Z,999.56
2022-07-28T09:04:52.436Z,999.56
2022-07-28T09:05:52.394Z,999.59
2022-07-28T09:06:52.411Z,999.58
2022-07-28T09:07:54.621Z,999.57
2022-07-28T09:08:52.376Z,999.58
2022-07-28T09:09:52.350Z,999.59
2022-07-28T09:10:53.329Z,999.59
2022-07-28T09:11:52.316Z,999.60
2022-07-28T09:12:52.451Z,999.60
2022-07-28T09:13:54.118Z,999.56
2022-07-28T09:14:52.245Z,999.58
2022-07-28T09:15:52.328Z,999.58
2022-07-28T09:16:52.255Z,999.56
2022-07-28T09:17:52.220Z,999.55
2022-07-28T09:18:52.225Z,999.54
2022-07-28T09:19:52.165Z,999.51
2022-07-28T09:20:52.148Z,999.51
2022-07-28T09:21:52.149Z,999.48
2022-07-28T09:22:52.108Z,999.46
2022-07-28T09:23:52.104Z,999.44
2022-07-28T09:24:52.100Z,999.42
2022-07-28T09:25:52.091Z,999.40
2022-07-28T09:26:52.048Z,999.44
2022-07-28T09:27:52.040Z,999.46
2022-07-28T09:28:52.292Z,999.45
2022-07-28T09:29:52.015Z,999.45
2022-07-28T09:30:51.954Z,999.41
2022-07-28T09:31:57.119Z,999.43
2022-07-28T09:32:51.954Z,999.40
2022-07-28T09:33:51.926Z,999.38
2022-07-28T09:34:52.062Z,999.39
2022-07-28T09:35:51.902Z,999.41
2022-07-28T09:36:51.898Z,999.42
2022-07-28T09:37:51.855Z,999.41
2022-07-28T09:38:51.835Z,999.39
2022-07-28T09:39:52.805Z,999.37
2022-07-28T09:40:51.801Z,999.36
2022-07-28T09:41:51.769Z,999.37
2022-07-28T09:42:51.748Z,999.36
2022-07-28T09:43:54.922Z,999.39
2022-07-28T09:45:20.319Z,999.35
2022-07-28T09:45:52.793Z,999.32
2022-07-28T09:46:52.458Z,999.32
2022-07-28T09:47:51.908Z,999.32
2022-07-28T09:48:51.815Z,999.32
2022-07-28T09:49:51.705Z,999.30
2022-07-28T09:50:51.682Z,999.28
2022-07-28T09:51:51.622Z,999.25
2022-07-28T09:52:51.623Z,999.22
2022-07-28T09:53:51.575Z,999.23
2022-07-28T09:54:51.614Z,999.21
2022-07-28T09:55:51.587Z,999.20
2022-07-28T09:56:51.521Z,999.18
2022-07-28T09:57:51.524Z,999.18
2022-07-28T09:58:51.478Z,999.18
2022-07-28T09:59:55.604Z,999.19
2022-07-28T10:00:51.428Z,999.15
2022-07-28T10:01:51.575Z,999.12
2022-07-28T10:02:51.475Z,999.12
2022-07-28T10:03:51.398Z,999.12
2022-07-28T10:04:51.390Z,999.08
2022-07-28T10:05:53.811Z,999.10
2022-07-28T10:06:51.350Z,999.08
2022-07-28T10:07:51.336Z,999.12
2022-07-28T10:08:52.283Z,999.11
2022-07-28T10:09:51.262Z,999.08
2022-07-28T10:10:51.274Z,999.10
2022-07-28T10:11:51.276Z,999.09
2022-07-28T10:12:51.221Z,999.09
2022-07-28T10:13:51.217Z,999.08
2022-07-28T10:14:51.892Z,999.06
2022-07-28T10:15:51.541Z,999.03
2022-07-28T10:16:51.184Z,999.01
2022-07-28T10:17:51.147Z,998.97
2022-07-28T10:18:51.793Z,998.96
2022-07-28T10:19:51.114Z,998.91
2022-07-28T10:20:51.788Z,998.92
2022-07-28T10:21:51.063Z,998.88
2022-07-28T10:22:51.089Z,998.90
2022-07-28T10:23:51.031Z,998.87
2022-07-28T10:24:51.174Z,998.89
2022-07-28T10:25:51.778Z,998.90
2022-07-28T10:26:50.984Z,998.87
2022-07-28T10:27:51.025Z,998.85
2022-07-28T10:28:50.951Z,998.89
2022-07-28T10:29:50.923Z,998.89
2022-07-28T10:30:50.926Z,998.85
2022-07-28T10:31:50.869Z,998.83
2022-07-28T10:32:51.798Z,998.82
2022-07-28T10:33:50.850Z,998.79
2022-07-28T10:34:50.843Z,998.80
2022-07-28T10:35:55.085Z,998.82
2022-07-28T10:36:50.767Z,998.80
2022-07-28T10:37:50.821Z,998.76
2022-07-28T10:38:50.753Z,998.74
2022-07-28T10:39:50.712Z,998.69
2022-07-28T10:40:50.720Z,998.68
2022-07-28T10:41:51.116Z,998.69
2022-07-28T10:42:50.702Z,998.70
2022-07-28T10:43:50.704Z,998.70
2022-07-28T10:44:51.307Z,998.69
2022-07-28T10:46:08.079Z,998.67
2022-07-28T10:46:51.665Z,998.65
2022-07-28T10:47:50.592Z,998.67
2022-07-28T10:48:50.609Z,998.68
2022-07-28T10:49:50.565Z,998.64
2022-07-28T10:50:51.240Z,998.65
2022-07-28T10:52:19.665Z,998.67
2022-07-28T10:52:54.826Z,998.68
2022-07-28T10:53:51.489Z,998.70
2022-07-28T10:54:50.480Z,998.68
2022-07-28T10:55:50.502Z,998.64
2022-07-28T10:56:50.414Z,998.65
2022-07-28T10:58:02.213Z,998.62
2022-07-28T10:58:51.365Z,998.68
2022-07-28T10:59:55.850Z,998.70
2022-07-28T11:01:05.086Z,998.69
2022-07-28T11:01:51.372Z,998.71
2022-07-28T11:02:50.565Z,998.71
2022-07-28T11:03:50.365Z,998.70
2022-07-28T11:04:50.324Z,998.70
2022-07-28T11:05:50.262Z,998.63
2022-07-28T11:06:50.219Z,998.60
2022-07-28T11:07:50.226Z,998.57
2022-07-28T11:08:50.180Z,998.58
2022-07-28T11:09:50.551Z,998.56
2022-07-28T11:10:50.167Z,998.57
2022-07-28T11:11:50.199Z,998.54
2022-07-28T11:12:50.104Z,998.51
2022-07-28T11:13:50.513Z,998.56
2022-07-28T11:14:50.092Z,998.53
2022-07-28T11:15:50.091Z,998.56
2022-07-28T11:16:50.097Z,998.59
2022-07-28T11:17:50.054Z,998.56
2022-07-28T11:18:50.006Z,998.56
2022-07-28T11:20:07.006Z,998.54
2022-07-28T11:20:51.023Z,998.52
2022-07-28T11:21:52.895Z,998.50
2022-07-28T11:22:49.920Z,998.50
2022-07-28T11:23:49.945Z,998.49
2022-07-28T11:24:49.893Z,998.46
2022-07-28T11:25:49.865Z,998.45
2022-07-28T11:26:49.918Z,998.45
2022-07-28T11:27:49.965Z,998.43
2022-07-28T11:28:50.810Z,998.41
2022-07-28T11:29:49.850Z,998.42
2022-07-28T11:30:49.873Z,998.41
2022-07-28T11:31:49.838Z,998.37
2022-07-28T11:32:49.772Z,998.37
2022-07-28T11:33:49.746Z,998.35
2022-07-28T11:34:50.319Z,998.33
2022-07-28T11:35:49.725Z,998.35
2022-07-28T11:36:50.754Z,998.35
2022-07-28T11:37:49.650Z,998.36
2022-07-28T11:38:49.705Z,998.36
2022-07-28T11:39:49.625Z,998.35
2022-07-28T11:40:49.592Z,998.32
2022-07-28T11:41:49.617Z,998.29
2022-07-28T11:42:49.611Z,998.30
2022-07-28T11:43:49.548Z,998.28
2022-07-28T11:44:49.563Z,998.26
2022-07-28T11:45:55.783Z,998.27
2022-07-28T11:46:52.608Z,998.23
2022-07-28T11:47:49.558Z,998.25
2022-07-28T11:48:49.517Z,998.23
2022-07-28T11:49:49.456Z,998.24
2022-07-28T11:50:49.436Z,998.23
2022-07-28T11:51:52.616Z,998.20
2022-07-28T11:52:50.429Z,998.18
2022-07-28T11:53:49.382Z,998.19
2022-07-28T11:54:49.388Z,998.16
2022-07-28T11:56:02.429Z,998.10
2022-07-28T11:56:50.349Z,998.08
2022-07-28T11:57:53.507Z,998.07
2022-07-28T11:58:49.292Z,998.05
2022-07-28T11:59:49.948Z,998.05
2022-07-28T12:00:49.809Z,998.02
2022-07-28T12:01:49.246Z,998.06
2022-07-28T12:02:49.219Z,998.06
2022-07-28T12:03:55.808Z,998.06
2022-07-28T12:04:50.234Z,998.07
2022-07-28T12:05:49.219Z,998.11
2022-07-28T12:06:49.428Z,998.10
2022-07-28T12:07:49.122Z,998.06
2022-07-28T12:08:49.144Z,998.10
2022-07-28T12:09:49.088Z,998.10
2022-07-28T12:10:54.942Z,998.05
2022-07-28T12:11:50.034Z,998.04
2022-07-28T12:12:48.998Z,998.00
2022-07-28T12:13:49.060Z,997.96
2022-07-28T12:14:49.070Z,997.97